Time;durP1;ratioP1;P1;durP2;ratioP2;P2;SDS_P1;SDS_P2;PMS_P1;PMS_P2;Temp;Humidity;BMP_temperature;BMP_pressure;BME280_temperature;BME280_humidity;BME280_pressure;Samples;Min_cycle;Max_cycle;Signal;HPM_P1;HPM_P2
2023/09/01 00:01:30;;;;;;;4.00;1.30;;;;;;;12.52;94.54;100379.17;105512;1256;75036;-64
2023/09/01 00:04:33;;;;;;;4.40;1.70;;;;;;;12.51;94.55;100380.27;104968;1260;82436;-64
2023/09/01 00:07:00;;;;;;;3.30;1.50;;;;;;;12.49;94.55;100381.77;105429;1256;72917;-64
2023/09/01 00:09:27;;;;;;;4.60;1.40;;;;;;;12.48;94.71;100374.44;105448;1254;69186;-64
2023/09/01 00:11:54;;;;;;;2.90;1.20;;;;;;;12.48;94.75;100375.84;105503;1254;69186;-64
2023/09/01 00:14:21;;;;;;;2.80;1.40;;;;;;;12.49;94.82;100372.99;105478;1254;75001;-64
2023/09/01 00:16:48;;;;;;;2.90;1.50;;;;;;;12.52;94.96;100372.72;105530;1257;83338;-65
2023/09/01 00:19:15;;;;;;;1.90;1.40;;;;;;;12.52;95.05;100380.58;105445;1257;73870;-65
2023/09/01 00:21:42;;;;;;;2.80;1.50;;;;;;;12.52;94.86;100379.19;105469;1254;69070;-64
2023/09/01 00:24:09;;;;;;;1.80;1.30;;;;;;;12.52;94.89;100378.67;105442;1253;69170;-65
2023/09/01 00:26:36;;;;;;;2.90;1.20;;;;;;;12.50;94.98;100378.20;105519;1254;73800;-65
2023/09/01 00:29:04;;;;;;;3.90;1.70;;;;;;;12.48;95.09;100375.31;105543;1256;83191;-65
2023/09/01 00:31:33;;;;;;;3.40;1.60;;;;;;;12.49;95.07;100374.41;105499;1254;73909;-64
2023/09/01 00:34:01;;;;;;;4.20;1.40;;;;;;;12.48;94.97;100374.81;105502;1257;69193;-64
2023/09/01 00:36:28;;;;;;;3.30;1.50;;;;;;;12.46;94.92;100376.64;105460;1254;69142;-64
2023/09/01 00:38:54;;;;;;;1.60;1.20;;;;;;;12.43;94.75;100382.19;105443;1257;74992;-64
2023/09/01 00:41:21;;;;;;;2.70;1.20;;;;;;;12.39;94.62;100383.27;105476;1257;83319;-64
2023/09/01 00:43:48;;;;;;;3.00;1.30;;;;;;;12.34;94.80;100381.55;105425;1267;73824;-64
2023/09/01 00:46:16;;;;;;;2.10;1.40;;;;;;;12.31;94.81;100380.98;105451;1254;69168;-64
2023/09/01 00:48:44;;;;;;;2.10;1.40;;;;;;;12.25;94.85;100378.79;105474;1257;69096;-64
2023/09/01 00:51:11;;;;;;;1.80;1.30;;;;;;;12.20;94.79;100380.77;105527;1258;74889;-64
2023/09/01 00:53:38;;;;;;;1.70;1.30;;;;;;;12.14;94.77;100383.83;105490;1256;83481;-64
2023/09/01 00:56:06;;;;;;;4.10;1.50;;;;;;;12.06;94.78;100381.38;105504;1256;73388;-64
2023/09/01 00:58:33;;;;;;;2.50;1.30;;;;;;;11.99;94.65;100382.41;105473;1256;69127;-64
2023/09/01 01:00:59;;;;;;;3.60;1.20;;;;;;;11.92;94.73;100381.98;105555;1256;69064;-64
2023/09/01 01:03:27;;;;;;;5.00;1.40;;;;;;;11.85;94.91;100387.52;105500;1256;74173;-64
2023/09/01 01:06:11;;;;;;;2.10;1.20;;;;;;;11.80;95.11;100387.40;105536;1259;82321;-64
2023/09/01 01:09:10;;;;;;;4.50;1.50;;;;;;;11.74;95.16;100388.34;105474;1256;73237;-64
2023/09/01 01:12:00;;;;;;;2.50;1.70;;;;;;;11.68;95.07;100385.27;105434;1256;69215;-64
2023/09/01 01:14:32;;;;;;;2.50;1.40;;;;;;;11.63;95.48;100385.83;105484;1254;69224;-64
2023/09/01 01:17:00;;;;;;;4.40;1.40;;;;;;;11.61;95.81;100385.36;105476;1256;74819;-64
2023/09/01 01:19:50;;;;;;;3.70;1.60;;;;;;;11.57;95.81;100385.69;105504;1256;83371;-64
2023/09/01 01:22:39;;;;;;;2.60;1.50;;;;;;;11.51;95.63;100378.96;105434;1256;73869;-64
2023/09/01 01:25:08;;;;;;;3.10;1.50;;;;;;;11.45;95.73;100376.41;105468;1257;69094;-64
2023/09/01 01:27:36;;;;;;;3.40;1.70;;;;;;;11.40;95.89;100374.88;105495;1266;69119;-64
2023/09/01 01:30:05;;;;;;;2.50;1.50;;;;;;;11.36;96.05;100375.55;105546;1256;74851;-65
2023/09/01 01:32:32;;;;;;;4.60;1.20;;;;;;;11.33;96.15;100372.34;105506;1256;83697;-64
2023/09/01 01:35:18;;;;;;;3.40;1.40;;;;;;;11.31;96.54;100372.59;105521;1259;72591;-64
2023/09/01 01:37:56;;;;;;;2.90;1.50;;;;;;;11.28;96.58;100371.81;105485;1254;69173;-64
2023/09/01 01:40:23;;;;;;;2.50;1.40;;;;;;;11.25;96.67;100375.64;105515;1257;69233;-64
2023/09/01 01:42:51;;;;;;;3.10;1.20;;;;;;;11.21;96.56;100376.15;105476;1260;73941;-64
2023/09/01 01:45:22;;;;;;;5.20;1.30;;;;;;;11.18;96.64;100375.23;105433;1257;83619;-64
2023/09/01 01:47:50;;;;;;;4.00;1.50;;;;;;;11.18;97.04;100378.73;105498;1256;73597;-64
2023/09/01 01:50:18;;;;;;;1.40;1.20;;;;;;;11.17;96.88;100372.64;105545;1259;69167;-65
2023/09/01 01:52:45;;;;;;;3.40;1.30;;;;;;;11.15;96.97;100373.23;105476;1255;69140;-64
2023/09/01 01:55:12;;;;;;;3.70;1.30;;;;;;;11.12;96.97;100371.08;105471;1256;74835;-64
2023/09/01 01:57:41;;;;;;;2.00;1.20;;;;;;;11.09;97.02;100372.96;105499;1257;83442;-64
2023/09/01 02:00:11;;;;;;;1.60;1.10;;;;;;;11.07;97.10;100374.59;105431;1259;73641;-64
2023/09/01 02:02:42;;;;;;;1.70;1.00;;;;;;;11.04;97.18;100375.06;105509;1255;69105;-64
2023/09/01 02:05:09;;;;;;;2.50;1.20;;;;;;;11.05;97.33;100377.65;105530;1256;69165;-64
2023/09/01 02:07:37;;;;;;;2.30;1.50;;;;;;;11.04;97.37;100374.89;105497;1258;74941;-64
2023/09/01 02:10:07;;;;;;;1.60;1.30;;;;;;;11.03;97.45;100377.20;105467;1260;83341;-64
2023/09/01 02:12:34;;;;;;;3.80;1.80;;;;;;;11.01;97.49;100376.24;105500;1257;73649;-65
2023/09/01 02:15:03;;;;;;;6.40;1.60;;;;;;;10.99;97.53;100372.47;105519;1257;69190;-64
2023/09/01 02:17:30;;;;;;;1.90;1.10;;;;;;;10.97;97.47;100376.05;105497;1257;69106;-64
2023/09/01 02:19:57;;;;;;;5.90;1.40;;;;;;;10.95;97.48;100377.36;105423;1260;75078;-64
2023/09/01 02:22:24;;;;;;;6.00;1.50;;;;;;;10.91;97.48;100383.79;105510;1259;83306;-64
2023/09/01 02:24:51;;;;;;;3.30;1.50;;;;;;;10.89;97.75;100385.27;105479;1257;72413;-64
2023/09/01 02:27:18;;;;;;;4.60;1.60;;;;;;;10.86;97.63;100383.81;105482;1258;69135;-64
2023/09/01 02:29:45;;;;;;;2.90;1.50;;;;;;;10.82;97.65;100387.64;105482;1257;69172;-64
2023/09/01 02:32:12;;;;;;;4.10;1.60;;;;;;;10.78;97.82;100386.56;105492;1257;74869;-64
2023/09/01 02:34:39;;;;;;;2.20;1.40;;;;;;;10.78;97.98;100380.48;105517;1257;82449;-64
2023/09/01 02:37:06;;;;;;;3.40;1.60;;;;;;;10.79;98.55;100376.73;105478;1260;72688;-64
2023/09/01 02:39:33;;;;;;;4.90;1.70;;;;;;;10.80;98.62;100379.13;105465;1257;69131;-64
2023/09/01 02:42:01;;;;;;;4.00;1.70;;;;;;;10.79;98.49;100381.29;105544;1256;69169;-64
2023/09/01 02:44:28;;;;;;;6.30;1.50;;;;;;;10.77;98.21;100384.70;105436;1257;74794;-64
2023/09/01 02:46:55;;;;;;;3.60;1.50;;;;;;;10.70;98.13;100387.55;105511;1257;83348;-64
2023/09/01 02:49:22;;;;;;;1.90;1.40;;;;;;;10.65;97.81;100393.16;105447;1260;72633;-65
2023/09/01 02:51:49;;;;;;;2.40;1.20;;;;;;;10.60;97.78;100395.11;105494;1259;69230;-64
2023/09/01 02:54:16;;;;;;;1.80;1.30;;;;;;;10.56;98.05;100392.82;105549;1257;69121;-64
2023/09/01 02:56:43;;;;;;;4.10;1.50;;;;;;;10.50;97.56;100394.07;105480;1256;73944;-64
2023/09/01 02:59:10;;;;;;;3.10;1.30;;;;;;;10.41;97.18;100399.49;105460;1258;81925;-64
2023/09/01 03:01:37;;;;;;;4.40;1.30;;;;;;;10.32;97.16;100399.98;105488;1257;72598;-64
2023/09/01 03:04:07;;;;;;;1.70;1.40;;;;;;;10.23;97.09;100401.86;105459;1260;69098;-64
2023/09/01 03:06:34;;;;;;;3.10;1.60;;;;;;;10.16;97.30;100399.48;105445;1257;69135;-64
2023/09/01 03:09:02;;;;;;;4.00;1.50;;;;;;;10.13;97.98;100392.21;105530;1257;75634;-64
2023/09/01 03:11:30;;;;;;;2.50;1.60;;;;;;;10.13;98.20;100393.64;105491;1257;83571;-64
2023/09/01 03:13:57;;;;;;;3.70;1.40;;;;;;;10.12;98.57;100396.98;105437;1255;73863;-64
2023/09/01 03:16:24;;;;;;;3.60;1.60;;;;;;;10.12;98.82;100394.73;105549;1260;69082;-64
2023/09/01 03:18:57;;;;;;;4.10;1.30;;;;;;;10.10;98.74;100392.35;105459;1259;69273;-64
2023/09/01 03:21:24;;;;;;;3.70;2.20;;;;;;;10.08;99.00;100395.91;105487;1260;74705;-64
2023/09/01 03:23:52;;;;;;;4.10;1.70;;;;;;;10.08;99.00;100395.21;105543;1256;82273;-64
2023/09/01 03:26:22;;;;;;;3.20;1.60;;;;;;;10.04;99.09;100393.42;105509;1259;73652;-64
2023/09/01 03:28:50;;;;;;;2.60;1.40;;;;;;;9.99;98.75;100400.39;105453;1260;69210;-64
2023/09/01 03:31:17;;;;;;;3.10;1.50;;;;;;;9.94;98.78;100400.73;105559;1257;69268;-64
2023/09/01 03:33:44;;;;;;;3.50;1.50;;;;;;;9.90;98.72;100403.33;105556;1257;74840;-64
2023/09/01 03:36:13;;;;;;;3.80;1.80;;;;;;;9.84;98.54;100407.89;105580;1256;83647;-65
2023/09/01 03:38:40;;;;;;;3.70;1.30;;;;;;;9.81;98.81;100404.36;105518;1254;73846;-64
2023/09/01 03:41:08;;;;;;;3.70;1.60;;;;;;;9.77;98.84;100406.38;105471;1257;69074;-65
2023/09/01 03:43:35;;;;;;;2.10;1.50;;;;;;;9.76;98.98;100402.25;105538;1256;69240;-64
2023/09/01 03:46:02;;;;;;;2.10;1.40;;;;;;;9.74;99.07;100402.64;105519;1254;74865;-64
2023/09/01 03:48:30;;;;;;;5.40;1.50;;;;;;;9.72;99.08;100402.91;105502;1257;83467;-65
2023/09/01 03:51:29;;;;;;;3.90;1.70;;;;;;;9.69;99.08;100399.84;105396;1255;73415;-64
2023/09/01 03:53:56;;;;;;;4.40;1.90;;;;;;;9.66;99.43;100400.46;105231;1263;69212;-65
2023/09/01 03:56:24;;;;;;;2.20;1.60;;;;;;;9.68;99.76;100404.07;105470;1257;69400;-64
2023/09/01 03:58:51;;;;;;;3.30;1.70;;;;;;;9.67;99.61;100406.39;105485;1257;74618;-64
2023/09/01 04:01:18;;;;;;;3.50;1.60;;;;;;;9.63;99.28;100407.38;105449;1258;83077;-64
2023/09/01 04:03:47;;;;;;;3.30;1.70;;;;;;;9.57;99.04;100411.76;105486;1256;72731;-64
2023/09/01 04:06:15;;;;;;;1.90;1.40;;;;;;;9.56;99.63;100415.45;105583;1257;69065;-64
2023/09/01 04:08:42;;;;;;;5.30;3.60;;;;;;;9.57;99.85;100417.67;105531;1257;69227;-64
2023/09/01 04:11:10;;;;;;;3.90;2.10;;;;;;;9.59;100.00;100417.63;105547;1255;74744;-65
2023/09/01 04:13:37;;;;;;;3.60;2.30;;;;;;;9.61;99.97;100415.46;105466;1260;83181;-64
2023/09/01 04:16:04;;;;;;;3.30;2.20;;;;;;;9.70;100.00;100415.52;105512;1257;72983;-65
2023/09/01 04:18:32;;;;;;;4.50;1.90;;;;;;;9.78;100.00;100419.98;105521;1254;69188;-65
2023/09/01 04:20:59;;;;;;;3.10;2.10;;;;;;;9.84;100.00;100424.31;105468;1258;69122;-65
2023/09/01 04:23:27;;;;;;;6.20;1.80;;;;;;;9.87;100.00;100420.56;105572;1254;74820;-64
2023/09/01 04:25:55;;;;;;;4.20;1.70;;;;;;;9.85;100.00;100423.39;105524;1257;82419;-64
2023/09/01 04:28:23;;;;;;;3.50;1.70;;;;;;;9.85;100.00;100422.34;105460;1253;72682;-64
2023/09/01 04:30:50;;;;;;;3.70;1.80;;;;;;;9.87;100.00;100423.15;105447;1257;69192;-64
2023/09/01 04:33:18;;;;;;;3.60;1.80;;;;;;;9.92;100.00;100425.26;105491;1259;69220;-65
2023/09/01 04:35:55;;;;;;;2.40;1.80;;;;;;;9.93;100.00;100427.13;105564;1254;74790;-61
2023/09/01 04:38:23;;;;;;;4.10;1.70;;;;;;;9.95;100.00;100427.60;105731;1256;82510;-63
2023/09/01 04:40:57;;;;;;;4.50;2.00;;;;;;;9.97;100.00;100433.83;105633;1254;73547;-63
2023/09/01 04:43:28;;;;;;;6.80;2.50;;;;;;;10.00;100.00;100428.65;105622;1257;69231;-66
2023/09/01 04:45:57;;;;;;;2.80;1.70;;;;;;;10.00;100.00;100429.89;105711;1264;69167;-63
2023/09/01 04:48:25;;;;;;;4.60;2.10;;;;;;;10.03;100.00;100432.36;105736;1257;73785;-63
2023/09/01 04:50:53;;;;;;;3.30;2.10;;;;;;;10.12;100.00;100435.91;105775;1257;83757;-63
2023/09/01 04:53:20;;;;;;;7.60;2.30;;;;;;;10.21;100.00;100433.36;105556;1257;72689;-64
2023/09/01 04:55:50;;;;;;;2.60;2.10;;;;;;;10.27;100.00;100434.90;105616;1254;69063;-62
2023/09/01 04:58:17;;;;;;;3.10;2.10;;;;;;;10.31;100.00;100440.34;105607;1257;69230;-64
2023/09/01 05:00:44;;;;;;;3.20;2.20;;;;;;;10.36;100.00;100440.17;105603;1254;73696;-66
2023/09/01 05:03:12;;;;;;;2.50;1.90;;;;;;;10.39;100.00;100439.20;105569;1257;83468;-63
2023/09/01 05:05:40;;;;;;;2.60;2.20;;;;;;;10.44;100.00;100442.15;105565;1257;73452;-62
2023/09/01 05:08:07;;;;;;;4.40;2.20;;;;;;;10.51;100.00;100442.78;105803;1254;69074;-62
2023/09/01 05:10:34;;;;;;;5.00;2.30;;;;;;;10.53;100.00;100445.33;105635;1256;69194;-63
2023/09/01 05:13:01;;;;;;;4.10;2.20;;;;;;;10.57;100.00;100445.20;105643;1255;74870;-63
2023/09/01 05:15:28;;;;;;;4.40;1.80;;;;;;;10.60;100.00;100448.92;105738;1256;82374;-63
2023/09/01 05:17:55;;;;;;;2.70;2.20;;;;;;;10.64;100.00;100450.36;105479;1255;73938;-63
2023/09/01 05:20:22;;;;;;;2.90;2.00;;;;;;;10.67;100.00;100454.77;105644;1255;69177;-63
2023/09/01 05:22:49;;;;;;;4.00;2.30;;;;;;;10.71;100.00;100456.73;105669;1257;69134;-63
2023/09/01 05:25:17;;;;;;;2.90;2.20;;;;;;;10.76;100.00;100461.61;105719;1257;74728;-63
2023/09/01 05:27:44;;;;;;;3.00;2.00;;;;;;;10.81;100.00;100464.06;105671;1257;83554;-62
2023/09/01 05:30:13;;;;;;;4.10;2.10;;;;;;;10.87;100.00;100463.15;105798;1257;73512;-63
2023/09/01 05:32:40;;;;;;;5.20;2.30;;;;;;;10.92;100.00;100459.28;105580;1255;69192;-63
2023/09/01 05:35:07;;;;;;;3.30;1.60;;;;;;;10.98;100.00;100462.91;105689;1253;69165;-63
2023/09/01 05:37:35;;;;;;;3.10;2.00;;;;;;;11.04;100.00;100464.97;105679;1254;73723;-62
2023/09/01 05:40:03;;;;;;;4.40;2.10;;;;;;;11.09;100.00;100468.94;105568;1254;82467;-63
2023/09/01 05:42:30;;;;;;;4.30;1.90;;;;;;;11.14;100.00;100466.84;105792;1257;71804;-63
2023/09/01 05:44:57;;;;;;;4.80;2.10;;;;;;;11.19;100.00;100466.47;105570;1254;69145;-63
2023/09/01 05:47:24;;;;;;;3.80;2.00;;;;;;;11.25;100.00;100468.52;105697;1255;69146;-64
2023/09/01 05:49:51;;;;;;;3.20;1.90;;;;;;;11.31;100.00;100472.13;105491;1254;74921;-63
2023/09/01 05:52:19;;;;;;;3.70;1.90;;;;;;;11.38;100.00;100471.85;105597;1257;83444;-63
2023/09/01 05:54:46;;;;;;;3.30;2.00;;;;;;;11.45;100.00;100477.01;105532;1258;74647;-62
2023/09/01 05:57:13;;;;;;;4.30;2.20;;;;;;;11.52;100.00;100475.17;105557;1256;69192;-63
2023/09/01 05:59:41;;;;;;;3.80;1.80;;;;;;;11.58;100.00;100477.55;105633;1257;69401;-64
2023/09/01 06:02:08;;;;;;;3.80;1.70;;;;;;;11.65;100.00;100482.17;105735;1256;73913;-63
2023/09/01 06:04:35;;;;;;;4.70;1.90;;;;;;;11.70;100.00;100479.50;105796;1256;83608;-62
2023/09/01 06:07:03;;;;;;;2.60;1.80;;;;;;;11.79;100.00;100479.50;105814;1256;73801;-63
2023/09/01 06:09:30;;;;;;;4.40;2.20;;;;;;;11.89;100.00;100478.23;105812;1256;69225;-63
2023/09/01 06:11:57;;;;;;;3.50;1.60;;;;;;;11.99;100.00;100474.15;105614;1254;69162;-66
2023/09/01 06:14:24;;;;;;;2.60;1.80;;;;;;;12.11;100.00;100476.14;105601;1255;73796;-63
2023/09/01 06:16:51;;;;;;;3.10;1.80;;;;;;;12.22;100.00;100477.38;105504;1257;83487;-63
2023/09/01 06:19:18;;;;;;;4.00;1.70;;;;;;;12.34;100.00;100475.33;105673;1254;72544;-65
2023/09/01 06:21:46;;;;;;;2.70;1.50;;;;;;;12.43;100.00;100478.75;105582;1257;69202;-65
2023/09/01 06:24:13;;;;;;;5.10;1.70;;;;;;;12.52;100.00;100474.33;105601;1257;69297;-64
2023/09/01 06:26:40;;;;;;;3.90;1.70;;;;;;;12.60;100.00;100476.08;105618;1254;74803;-65
2023/09/01 06:29:07;;;;;;;2.40;1.50;;;;;;;12.68;100.00;100472.91;105533;1254;83385;-65
2023/09/01 06:31:35;;;;;;;3.20;1.60;;;;;;;12.78;100.00;100477.05;105513;1256;73899;-64
2023/09/01 06:34:03;;;;;;;3.30;1.50;;;;;;;12.87;100.00;100480.14;105610;1253;69090;-64
2023/09/01 06:36:30;;;;;;;2.40;1.60;;;;;;;12.97;100.00;100479.71;105504;1254;69090;-65
2023/09/01 06:38:57;;;;;;;3.40;1.70;;;;;;;13.07;100.00;100477.17;105607;1254;74801;-65
2023/09/01 06:41:24;;;;;;;4.00;1.70;;;;;;;13.16;100.00;100475.67;105621;1254;82398;-65
2023/09/01 06:43:51;;;;;;;2.90;1.80;;;;;;;13.24;100.00;100476.53;105557;1255;73909;-65
2023/09/01 06:46:18;;;;;;;3.10;1.80;;;;;;;13.34;100.00;100475.89;105573;1254;69155;-65
2023/09/01 06:48:45;;;;;;;2.50;1.70;;;;;;;13.44;100.00;100472.48;105571;1254;69167;-65
2023/09/01 06:51:12;;;;;;;3.40;1.80;;;;;;;13.53;100.00;100475.90;105601;1257;74661;-65
2023/09/01 06:53:39;;;;;;;3.80;2.00;;;;;;;13.64;100.00;100477.48;105613;1254;83558;-65
2023/09/01 06:56:06;;;;;;;2.80;1.20;;;;;;;13.75;100.00;100479.02;105570;1254;73645;-65
2023/09/01 06:58:33;;;;;;;2.70;1.80;;;;;;;13.87;100.00;100482.98;105581;1255;69179;-65
2023/09/01 07:01:08;;;;;;;3.00;1.70;;;;;;;14.00;100.00;100488.16;105647;1254;69608;-65
2023/09/01 07:03:35;;;;;;;3.00;1.60;;;;;;;14.12;100.00;100485.27;105614;1255;73878;-65
2023/09/01 07:06:03;;;;;;;3.40;1.40;;;;;;;14.25;100.00;100480.42;105575;1256;82915;-65
2023/09/01 07:08:30;;;;;;;2.60;1.40;;;;;;;14.37;100.00;100475.73;105603;1254;72662;-65
2023/09/01 07:11:05;;;;;;;7.80;2.30;;;;;;;14.50;100.00;100475.61;105571;1254;69719;-65
2023/09/01 07:13:32;;;;;;;4.50;1.70;;;;;;;14.64;100.00;100478.22;105632;1256;69166;-65
2023/09/01 07:15:59;;;;;;;3.00;1.60;;;;;;;14.74;100.00;100479.48;105645;1254;74820;-65
2023/09/01 07:18:26;;;;;;;5.10;1.90;;;;;;;14.84;99.93;100481.92;105593;1254;83666;-65
2023/09/01 07:20:58;;;;;;;5.10;1.80;;;;;;;14.95;99.60;100480.31;105599;1254;73549;-65
2023/09/01 07:23:26;;;;;;;4.90;2.00;;;;;;;15.08;99.33;100479.43;105595;1254;69095;-64
2023/09/01 07:25:54;;;;;;;5.10;2.00;;;;;;;15.22;98.79;100481.11;105602;1256;69122;-65
2023/09/01 07:28:22;;;;;;;4.70;1.90;;;;;;;15.32;98.01;100475.45;105585;1254;75041;-65
2023/09/01 07:30:49;;;;;;;6.60;2.00;;;;;;;15.43;97.51;100479.27;105604;1257;83477;-65
2023/09/01 07:33:16;;;;;;;3.00;1.90;;;;;;;15.53;97.19;100484.52;105592;1254;73734;-65
2023/09/01 07:35:48;;;;;;;4.20;1.80;;;;;;;15.62;96.79;100485.56;105597;1256;69080;-65
2023/09/01 07:38:15;;;;;;;4.10;1.80;;;;;;;15.69;96.22;100485.90;105733;1256;69183;-64
2023/09/01 07:40:44;;;;;;;4.20;1.80;;;;;;;15.75;95.94;100492.61;105628;1253;73351;-65
2023/09/01 07:43:11;;;;;;;3.30;1.90;;;;;;;15.83;95.79;100495.16;105656;1255;83499;-65
2023/09/01 07:45:39;;;;;;;4.70;1.80;;;;;;;15.90;95.41;100493.52;105596;1254;72459;-65
2023/09/01 07:48:07;;;;;;;3.50;1.70;;;;;;;16.00;95.49;100498.55;105559;1255;69181;-65
2023/09/01 07:50:49;;;;;;;4.70;2.20;;;;;;;16.11;94.74;100499.54;105640;1253;69061;-65
2023/09/01 07:53:16;;;;;;;5.10;2.40;;;;;;;16.16;94.03;100501.33;105627;1254;74816;-65
2023/09/01 07:55:43;;;;;;;3.10;1.70;;;;;;;16.20;93.22;100507.08;105596;1256;83396;-65
2023/09/01 07:58:10;;;;;;;2.80;1.50;;;;;;;16.24;92.89;100505.43;105356;1254;324520;-65
2023/09/01 08:00:39;;;;;;;3.90;1.60;;;;;;;16.33;92.73;100505.30;105598;1256;69211;-65
2023/09/01 08:03:10;;;;;;;4.90;1.60;;;;;;;16.42;92.48;100505.81;105560;1256;69178;-65
2023/09/01 08:05:38;;;;;;;4.80;1.90;;;;;;;16.51;92.15;100504.91;105602;1253;74708;-65
2023/09/01 08:08:06;;;;;;;3.20;1.90;;;;;;;16.59;91.70;100504.28;105611;1256;82318;-65
2023/09/01 08:10:33;;;;;;;5.30;2.40;;;;;;;16.69;91.84;100506.65;105625;1255;72492;-65
2023/09/01 08:13:00;;;;;;;4.50;2.10;;;;;;;16.79;91.53;100502.88;105558;1256;69208;-65
2023/09/01 08:15:27;;;;;;;6.10;1.80;;;;;;;16.86;91.02;100505.09;105614;1254;69186;-65
2023/09/01 08:17:54;;;;;;;4.10;1.90;;;;;;;16.93;90.69;100502.76;105545;1254;73779;-65
2023/09/01 08:20:22;;;;;;;4.60;2.10;;;;;;;17.04;90.62;100504.00;105652;1256;83492;-65
2023/09/01 08:22:49;;;;;;;4.10;2.10;;;;;;;17.09;89.53;100508.09;105571;1252;73561;-65
2023/09/01 08:25:17;;;;;;;6.00;1.80;;;;;;;17.12;89.23;100509.30;105574;1257;69222;-65
2023/09/01 08:27:44;;;;;;;3.60;1.70;;;;;;;17.16;88.82;100507.26;105625;1254;69179;-64
2023/09/01 08:30:13;;;;;;;4.10;2.40;;;;;;;17.17;88.27;100506.90;105623;1254;74612;-65
2023/09/01 08:32:41;;;;;;;4.50;1.80;;;;;;;17.21;87.88;100508.05;105680;1256;83472;-65
2023/09/01 08:35:09;;;;;;;5.50;2.00;;;;;;;17.28;88.01;100507.95;105614;1254;73857;-65
2023/09/01 08:37:38;;;;;;;6.40;1.90;;;;;;;17.42;88.14;100508.31;105600;1252;69178;-65
2023/09/01 08:40:06;;;;;;;3.40;1.70;;;;;;;17.54;87.87;100505.25;105610;1256;69121;-65
2023/09/01 08:42:34;;;;;;;2.00;1.20;;;;;;;17.63;87.07;100504.33;105670;1256;74774;-65
2023/09/01 08:45:03;;;;;;;7.30;1.60;;;;;;;17.71;86.78;100501.35;105534;1257;83176;-65
2023/09/01 08:47:34;;;;;;;3.20;1.50;;;;;;;17.79;86.65;100500.98;105607;1254;72809;-64
2023/09/01 08:50:01;;;;;;;3.20;1.70;;;;;;;17.90;86.45;100495.00;105567;1254;69191;-65
2023/09/01 08:52:29;;;;;;;5.10;1.90;;;;;;;17.99;85.97;100495.44;105557;1255;69233;-65
2023/09/01 08:54:57;;;;;;;4.00;1.90;;;;;;;18.10;85.81;100493.29;105591;1256;73890;-65
2023/09/01 08:57:24;;;;;;;3.90;1.30;;;;;;;18.20;85.24;100494.23;105631;1254;82395;-65
2023/09/01 08:59:51;;;;;;;3.70;1.30;;;;;;;18.27;84.42;100498.84;105576;1254;72622;-65
2023/09/01 09:02:18;;;;;;;3.30;1.50;;;;;;;18.33;83.59;100493.00;105551;1254;69125;-65
2023/09/01 09:04:46;;;;;;;3.10;1.60;;;;;;;18.38;82.94;100491.79;105485;1257;69173;-65
2023/09/01 09:07:15;;;;;;;2.90;1.50;;;;;;;18.44;82.55;100492.56;105617;1254;74817;-65
2023/09/01 09:09:57;;;;;;;4.30;1.20;;;;;;;18.51;81.84;100496.20;105605;1256;83178;-65
2023/09/01 09:12:43;;;;;;;4.50;1.80;;;;;;;18.58;81.32;100495.50;105596;1254;73950;-65
2023/09/01 09:15:17;;;;;;;4.60;1.40;;;;;;;18.65;80.62;100493.44;105532;1257;69125;-64
2023/09/01 09:17:46;;;;;;;4.20;1.50;;;;;;;18.73;80.61;100488.81;105611;1253;69196;-65
2023/09/01 09:20:17;;;;;;;6.20;1.80;;;;;;;18.87;80.28;100491.58;105678;1255;75089;-65
2023/09/01 09:22:54;;;;;;;3.40;1.40;;;;;;;19.01;79.98;100491.70;105602;1252;82448;-65
2023/09/01 09:25:30;;;;;;;2.90;1.60;;;;;;;19.14;79.69;100496.77;105520;1254;73439;-65
2023/09/01 09:27:59;;;;;;;3.80;2.00;;;;;;;19.31;79.71;100497.33;105662;1257;69287;-65
2023/09/01 09:30:27;;;;;;;4.00;1.30;;;;;;;19.52;79.25;100500.61;105655;1257;69198;-65
2023/09/01 09:33:01;;;;;;;3.10;1.60;;;;;;;19.61;78.22;100498.16;105570;1256;74997;-65
2023/09/01 09:35:28;;;;;;;3.80;2.00;;;;;;;19.69;77.51;100496.89;105587;1256;82214;-65
2023/09/01 09:37:59;;;;;;;2.90;1.50;;;;;;;19.78;77.40;100500.27;105618;1256;73534;-65
2023/09/01 09:40:27;;;;;;;3.30;1.70;;;;;;;19.87;76.22;100503.41;105625;1254;69087;-65
2023/09/01 09:43:01;;;;;;;3.20;2.10;;;;;;;19.80;75.58;100496.42;105616;1254;69173;-65
2023/09/01 09:45:32;;;;;;;3.20;1.90;;;;;;;19.85;75.22;100497.10;105642;1255;73796;-66
2023/09/01 09:48:01;;;;;;;5.30;1.80;;;;;;;19.88;74.62;100496.89;105556;1256;83388;-65
2023/09/01 09:50:29;;;;;;;4.90;2.00;;;;;;;19.94;74.22;100497.20;105605;1254;73337;-65
2023/09/01 09:53:04;;;;;;;4.50;2.00;;;;;;;20.01;73.57;100500.36;105611;1254;69169;-65
2023/09/01 09:55:33;;;;;;;3.50;1.80;;;;;;;20.14;73.61;100494.27;105577;1256;69191;-65
2023/09/01 09:58:08;;;;;;;3.70;1.80;;;;;;;20.31;73.37;100493.71;105655;1253;74778;-65
2023/09/01 10:01:03;;;;;;;3.00;1.80;;;;;;;20.43;72.68;100495.41;105604;1254;81491;-65
2023/09/01 10:03:31;;;;;;;4.30;1.90;;;;;;;20.64;71.77;100501.99;105522;1257;73723;-65
2023/09/01 10:05:59;;;;;;;3.30;1.90;;;;;;;20.77;71.43;100503.09;105604;1254;69261;-65
2023/09/01 10:08:26;;;;;;;3.80;1.50;;;;;;;21.04;71.62;100494.38;105599;1254;69132;-65
2023/09/01 10:10:57;;;;;;;5.40;1.70;;;;;;;21.35;71.41;100488.59;105602;1254;74734;-65
2023/09/01 10:13:24;;;;;;;3.20;1.50;;;;;;;21.62;71.41;100488.59;105567;1257;82290;-65
2023/09/01 10:15:52;;;;;;;5.20;1.70;;;;;;;21.86;71.45;100488.69;105640;1257;72689;-65
2023/09/01 10:18:19;;;;;;;2.40;1.50;;;;;;;22.23;70.69;100484.88;105509;1257;69188;-65
2023/09/01 10:20:46;;;;;;;4.80;2.30;;;;;;;22.49;69.72;100483.59;105612;1254;69062;-65
2023/09/01 10:23:13;;;;;;;4.30;1.60;;;;;;;22.74;69.16;100482.52;105650;1254;74968;-65
2023/09/01 10:25:40;;;;;;;3.70;1.90;;;;;;;22.98;68.37;100485.96;105584;1254;83425;-65
2023/09/01 10:28:12;;;;;;;3.30;1.90;;;;;;;23.17;67.57;100486.27;105507;1254;73706;-65
2023/09/01 10:30:44;;;;;;;3.50;1.80;;;;;;;23.23;66.50;100479.85;105599;1254;69193;-65
2023/09/01 10:33:13;;;;;;;4.30;1.90;;;;;;;23.38;66.00;100479.91;105591;1256;69144;-65
2023/09/01 10:35:50;;;;;;;3.40;1.70;;;;;;;23.46;64.80;100476.22;105642;1254;74839;-65
2023/09/01 10:38:19;;;;;;;3.90;1.80;;;;;;;23.40;63.64;100475.08;105586;1256;83197;-65
2023/09/01 10:40:54;;;;;;;5.30;1.70;;;;;;;23.54;63.82;100469.02;105652;1254;73662;-66
2023/09/01 10:43:33;;;;;;;2.70;1.60;;;;;;;23.70;63.29;100470.77;105613;1252;69144;-65
2023/09/01 10:46:12;;;;;;;;;;;;;;;23.61;61.35;100465.02;105665;1253;69095;-65
2023/09/01 10:48:59;;;;;;;;;;;;;;;23.55;61.24;100464.29;105633;1254;74878;-65
2023/09/01 10:51:28;;;;;;;2.70;1.60;;;;;;;23.57;60.92;100461.25;105634;1256;83569;-65
2023/09/01 10:53:56;;;;;;;4.30;1.80;;;;;;;23.66;60.81;100460.27;105625;1254;73682;-66
2023/09/01 10:56:24;;;;;;;3.30;1.90;;;;;;;23.99;61.13;100466.34;105631;1256;69167;-59
2023/09/01 10:58:53;;;;;;;4.50;2.00;;;;;;;24.31;60.64;100467.13;105623;1254;69093;-59
2023/09/01 11:01:23;;;;;;;3.90;1.40;;;;;;;24.20;59.01;100466.88;105638;1256;73182;-59
2023/09/01 11:03:50;;;;;;;3.40;1.60;;;;;;;24.29;58.90;100462.86;105601;1254;82726;-59
2023/09/01 11:06:17;;;;;;;4.90;1.80;;;;;;;24.56;59.10;100458.39;105637;1255;73571;-59
2023/09/01 11:08:58;;;;;;;2.90;1.50;;;;;;;25.07;59.62;100449.56;105644;1254;69114;-59
2023/09/01 11:11:27;;;;;;;3.70;1.80;;;;;;;25.50;58.54;100461.10;105619;1257;69132;-59
2023/09/01 11:13:58;;;;;;;4.60;2.30;;;;;;;25.47;57.32;100455.48;105577;1254;73784;-59
2023/09/01 11:16:25;;;;;;;3.50;1.90;;;;;;;25.44;56.14;100459.20;105588;1256;83461;-59
2023/09/01 11:19:02;;;;;;;3.80;1.90;;;;;;;25.41;55.39;100453.41;105612;1256;73785;-59
2023/09/01 11:21:30;;;;;;;4.30;1.70;;;;;;;25.44;55.23;100460.79;105593;1254;69170;-59
2023/09/01 11:24:00;;;;;;;2.90;1.70;;;;;;;25.30;54.40;100460.61;105687;1256;69128;-59
2023/09/01 11:26:29;;;;;;;4.60;1.90;;;;;;;25.27;54.32;100459.91;105561;1256;75096;-59